Pagrindinis puslapis
METAR-TAF:

METAR-TAF

Oro uostai :

Wilbarger County Airport

Vernon, Teksasas, Jungtinės Amerikos Valstijos

platuma: 34-13-32N, ilguma: 099-17-01W, Aukštis: 386 m

Dabartinis oras

Ataskaita buvo paskelbta 20 minutes, ne 09:55 UTC
Vėjas 11 kt iš Pietvakarių
Temperatūra 23°C
Drėgmė 83%
Slėgis 1011 hPa
Matomumas: 16.1 km
Giedras dangus

METAR: KF05 050955Z AUTO 23011KT 10SM CLR 23/20 A2986 RMK AO1 T02280195

Laikas: 05:15 (10:15 UTC)


TAF: trūkstamas

Orai ataskaitas ir orų prognozės (METAR, TAF).

turimą stotys yra geltonos ir raudonos taškus žemėlapyje.

Perkelti pele per norėdami pamatyti stoties vardą.

Tada spustelėkite, norėdami matyti oro stebėjimo ir prognozės.

Norėdami pakeisti žemėlapį: spustelėkite ant žalios mygtukų su juodo kryžiaus žemyn,; žalią mygtuką su brūkšneliu, jei norite nutolinti; arba žalių rodyklių gretimoms žemėlapius.


METAR-TAF: